sensor_id;sensor_type;location;lat;lon;timestamp;P1;durP1;ratioP1;P2;durP2;ratioP2
67442;SDS011;54311;51.726;5.154;2024-01-10T00:00:25;11.32;;;10.02;;
67442;SDS011;54311;51.726;5.154;2024-01-10T00:02:51;10.23;;;9.43;;
67442;SDS011;54311;51.726;5.154;2024-01-10T00:05:17;9.45;;;8.75;;
67442;SDS011;54311;51.726;5.154;2024-01-10T00:07:42;11.25;;;10.07;;
67442;SDS011;54311;51.726;5.154;2024-01-10T00:10:08;11.05;;;10.05;;
67442;SDS011;54311;51.726;5.154;2024-01-10T00:12:33;10.80;;;10.00;;
67442;SDS011;54311;51.726;5.154;2024-01-10T00:15:02;10.90;;;10.00;;
67442;SDS011;54311;51.726;5.154;2024-01-10T00:17:29;10.38;;;9.48;;
67442;SDS011;54311;51.726;5.154;2024-01-10T00:19:54;11.02;;;10.10;;
67442;SDS011;54311;51.726;5.154;2024-01-10T00:22:19;10.07;;;9.27;;
67442;SDS011;54311;51.726;5.154;2024-01-10T00:24:45;10.05;;;9.18;;
67442;SDS011;54311;51.726;5.154;2024-01-10T00:27:10;10.68;;;9.88;;
67442;SDS011;54311;51.726;5.154;2024-01-10T00:29:35;9.75;;;8.98;;
67442;SDS011;54311;51.726;5.154;2024-01-10T00:32:01;11.57;;;10.65;;
67442;SDS011;54311;51.726;5.154;2024-01-10T00:34:26;11.18;;;10.25;;
67442;SDS011;54311;51.726;5.154;2024-01-10T00:36:52;10.18;;;9.27;;
67442;SDS011;54311;51.726;5.154;2024-01-10T00:39:17;10.73;;;9.82;;
67442;SDS011;54311;51.726;5.154;2024-01-10T00:41:43;10.30;;;9.30;;
67442;SDS011;54311;51.726;5.154;2024-01-10T00:44:08;11.07;;;10.05;;
67442;SDS011;54311;51.726;5.154;2024-01-10T00:46:33;11.07;;;10.10;;
67442;SDS011;54311;51.726;5.154;2024-01-10T00:48:59;10.23;;;9.43;;
67442;SDS011;54311;51.726;5.154;2024-01-10T00:51:24;11.25;;;10.32;;
67442;SDS011;54311;51.726;5.154;2024-01-10T00:53:49;11.27;;;9.93;;
67442;SDS011;54311;51.726;5.154;2024-01-10T00:56:15;10.80;;;10.00;;
67442;SDS011;54311;51.726;5.154;2024-01-10T00:58:40;10.20;;;9.32;;
67442;SDS011;54311;51.726;5.154;2024-01-10T01:01:06;10.40;;;9.70;;
67442;SDS011;54311;51.726;5.154;2024-01-10T01:03:31;10.23;;;9.43;;
67442;SDS011;54311;51.726;5.154;2024-01-10T01:05:57;11.90;;;10.43;;
67442;SDS011;54311;51.726;5.154;2024-01-10T01:08:22;11.57;;;10.60;;
67442;SDS011;54311;51.726;5.154;2024-01-10T01:10:48;10.45;;;9.65;;
67442;SDS011;54311;51.726;5.154;2024-01-10T01:13:13;10.70;;;9.80;;
67442;SDS011;54311;51.726;5.154;2024-01-10T01:15:38;11.07;;;10.15;;
67442;SDS011;54311;51.726;5.154;2024-01-10T01:18:04;10.93;;;10.00;;
67442;SDS011;54311;51.726;5.154;2024-01-10T01:20:29;10.95;;;9.98;;
67442;SDS011;54311;51.726;5.154;2024-01-10T01:22:54;10.35;;;9.55;;
67442;SDS011;54311;51.726;5.154;2024-01-10T01:25:20;10.82;;;9.82;;
67442;SDS011;54311;51.726;5.154;2024-01-10T01:27:45;12.43;;;11.43;;
67442;SDS011;54311;51.726;5.154;2024-01-10T01:30:11;14.98;;;9.23;;
67442;SDS011;54311;51.726;5.154;2024-01-10T01:32:36;10.02;;;9.20;;
67442;SDS011;54311;51.726;5.154;2024-01-10T01:35:02;9.77;;;9.00;;
67442;SDS011;54311;51.726;5.154;2024-01-10T01:37:28;11.77;;;10.77;;
67442;SDS011;54311;51.726;5.154;2024-01-10T01:39:53;10.23;;;9.48;;
67442;SDS011;54311;51.726;5.154;2024-01-10T01:42:18;10.30;;;9.50;;
67442;SDS011;54311;51.726;5.154;2024-01-10T01:44:44;11.70;;;10.80;;
67442;SDS011;54311;51.726;5.154;2024-01-10T01:47:09;12.18;;;10.35;;
67442;SDS011;54311;51.726;5.154;2024-01-10T01:49:34;10.48;;;9.65;;
67442;SDS011;54311;51.726;5.154;2024-01-10T01:52:00;10.45;;;9.63;;
67442;SDS011;54311;51.726;5.154;2024-01-10T01:54:26;11.25;;;10.38;;
67442;SDS011;54311;51.726;5.154;2024-01-10T01:56:51;10.68;;;9.90;;
67442;SDS011;54311;51.726;5.154;2024-01-10T01:59:17;11.85;;;10.85;;
67442;SDS011;54311;51.726;5.154;2024-01-10T02:01:42;11.65;;;10.70;;
67442;SDS011;54311;51.726;5.154;2024-01-10T02:04:08;10.70;;;9.98;;
67442;SDS011;54311;51.726;5.154;2024-01-10T02:06:33;10.68;;;9.77;;
67442;SDS011;54311;51.726;5.154;2024-01-10T02:08:59;10.52;;;9.73;;
67442;SDS011;54311;51.726;5.154;2024-01-10T02:11:25;10.50;;;9.70;;
67442;SDS011;54311;51.726;5.154;2024-01-10T02:13:51;9.90;;;9.20;;
67442;SDS011;54311;51.726;5.154;2024-01-10T02:16:16;11.23;;;10.43;;
67442;SDS011;54311;51.726;5.154;2024-01-10T02:18:42;11.02;;;10.13;;
67442;SDS011;54311;51.726;5.154;2024-01-10T02:21:08;11.40;;;10.55;;
67442;SDS011;54311;51.726;5.154;2024-01-10T02:23:33;10.15;;;9.35;;
67442;SDS011;54311;51.726;5.154;2024-01-10T02:25:59;11.20;;;10.30;;
67442;SDS011;54311;51.726;5.154;2024-01-10T02:28:24;10.75;;;9.95;;
67442;SDS011;54311;51.726;5.154;2024-01-10T02:30:50;10.98;;;9.98;;
67442;SDS011;54311;51.726;5.154;2024-01-10T02:33:16;11.25;;;10.25;;
67442;SDS011;54311;51.726;5.154;2024-01-10T02:35:41;11.88;;;10.68;;
67442;SDS011;54311;51.726;5.154;2024-01-10T02:38:07;11.82;;;10.82;;
67442;SDS011;54311;51.726;5.154;2024-01-10T02:40:32;10.75;;;9.85;;
67442;SDS011;54311;51.726;5.154;2024-01-10T02:42:57;11.15;;;10.07;;
67442;SDS011;54311;51.726;5.154;2024-01-10T02:45:23;9.95;;;9.15;;
67442;SDS011;54311;51.726;5.154;2024-01-10T02:47:48;14.73;;;9.50;;
67442;SDS011;54311;51.726;5.154;2024-01-10T02:50:13;9.60;;;8.80;;
67442;SDS011;54311;51.726;5.154;2024-01-10T02:52:39;10.05;;;9.10;;
67442;SDS011;54311;51.726;5.154;2024-01-10T02:55:04;11.77;;;10.45;;
67442;SDS011;54311;51.726;5.154;2024-01-10T02:57:29;11.00;;;10.07;;
67442;SDS011;54311;51.726;5.154;2024-01-10T02:59:55;11.27;;;10.32;;
67442;SDS011;54311;51.726;5.154;2024-01-10T03:02:20;11.98;;;10.85;;
67442;SDS011;54311;51.726;5.154;2024-01-10T03:04:47;10.15;;;9.20;;
67442;SDS011;54311;51.726;5.154;2024-01-10T03:07:13;10.30;;;9.40;;
67442;SDS011;54311;51.726;5.154;2024-01-10T03:09:38;11.35;;;10.43;;
67442;SDS011;54311;51.726;5.154;2024-01-10T03:12:03;11.02;;;10.02;;
67442;SDS011;54311;51.726;5.154;2024-01-10T03:14:29;12.18;;;11.13;;
67442;SDS011;54311;51.726;5.154;2024-01-10T03:16:54;10.88;;;9.98;;
67442;SDS011;54311;51.726;5.154;2024-01-10T03:19:20;10.32;;;9.45;;
67442;SDS011;54311;51.726;5.154;2024-01-10T03:21:45;10.52;;;9.65;;
67442;SDS011;54311;51.726;5.154;2024-01-10T03:24:10;10.25;;;9.27;;
67442;SDS011;54311;51.726;5.154;2024-01-10T03:26:36;12.20;;;10.10;;
67442;SDS011;54311;51.726;5.154;2024-01-10T03:29:01;12.00;;;10.75;;
67442;SDS011;54311;51.726;5.154;2024-01-10T03:31:27;12.05;;;10.80;;
67442;SDS011;54311;51.726;5.154;2024-01-10T03:33:53;11.65;;;10.50;;
67442;SDS011;54311;51.726;5.154;2024-01-10T03:36:19;10.48;;;9.65;;
67442;SDS011;54311;51.726;5.154;2024-01-10T03:38:45;11.52;;;10.52;;
67442;SDS011;54311;51.726;5.154;2024-01-10T03:41:13;11.70;;;10.60;;
67442;SDS011;54311;51.726;5.154;2024-01-10T03:43:39;12.38;;;11.05;;
67442;SDS011;54311;51.726;5.154;2024-01-10T03:46:04;10.32;;;9.50;;
67442;SDS011;54311;51.726;5.154;2024-01-10T03:48:30;11.35;;;10.15;;
67442;SDS011;54311;51.726;5.154;2024-01-10T03:50:56;10.88;;;10.02;;
67442;SDS011;54311;51.726;5.154;2024-01-10T03:53:21;10.77;;;10.07;;
67442;SDS011;54311;51.726;5.154;2024-01-10T03:55:46;11.35;;;10.35;;
67442;SDS011;54311;51.726;5.154;2024-01-10T03:58:12;11.43;;;10.38;;
67442;SDS011;54311;51.726;5.154;2024-01-10T04:00:37;11.18;;;10.20;;
67442;SDS011;54311;51.726;5.154;2024-01-10T04:03:02;10.88;;;9.98;;
67442;SDS011;54311;51.726;5.154;2024-01-10T04:05:28;11.50;;;10.40;;
67442;SDS011;54311;51.726;5.154;2024-01-10T04:07:53;10.65;;;9.77;;
67442;SDS011;54311;51.726;5.154;2024-01-10T04:10:21;11.40;;;10.40;;
67442;SDS011;54311;51.726;5.154;2024-01-10T04:12:47;11.20;;;10.30;;
67442;SDS011;54311;51.726;5.154;2024-01-10T04:15:12;10.45;;;9.45;;
67442;SDS011;54311;51.726;5.154;2024-01-10T04:17:38;11.52;;;10.52;;
67442;SDS011;54311;51.726;5.154;2024-01-10T04:20:03;13.05;;;11.98;;
67442;SDS011;54311;51.726;5.154;2024-01-10T04:22:29;10.98;;;9.93;;
67442;SDS011;54311;51.726;5.154;2024-01-10T04:24:58;10.63;;;9.57;;
67442;SDS011;54311;51.726;5.154;2024-01-10T04:27:24;11.35;;;10.00;;
67442;SDS011;54311;51.726;5.154;2024-01-10T04:29:50;12.00;;;11.00;;
67442;SDS011;54311;51.726;5.154;2024-01-10T04:32:15;11.35;;;10.23;;
67442;SDS011;54311;51.726;5.154;2024-01-10T04:34:40;10.73;;;9.93;;
67442;SDS011;54311;51.726;5.154;2024-01-10T04:37:06;11.27;;;10.10;;
67442;SDS011;54311;51.726;5.154;2024-01-10T04:39:34;11.65;;;10.63;;
67442;SDS011;54311;51.726;5.154;2024-01-10T04:42:00;10.40;;;9.65;;
67442;SDS011;54311;51.726;5.154;2024-01-10T04:44:26;13.77;;;9.80;;
67442;SDS011;54311;51.726;5.154;2024-01-10T04:46:51;12.07;;;10.95;;
67442;SDS011;54311;51.726;5.154;2024-01-10T04:49:16;11.77;;;10.52;;
67442;SDS011;54311;51.726;5.154;2024-01-10T04:51:42;10.55;;;9.65;;
67442;SDS011;54311;51.726;5.154;2024-01-10T04:54:08;10.43;;;9.52;;
67442;SDS011;54311;51.726;5.154;2024-01-10T04:56:33;10.68;;;9.77;;
67442;SDS011;54311;51.726;5.154;2024-01-10T04:59:01;10.98;;;10.15;;
67442;SDS011;54311;51.726;5.154;2024-01-10T05:01:26;11.48;;;10.57;;
67442;SDS011;54311;51.726;5.154;2024-01-10T05:03:51;10.80;;;9.80;;
67442;SDS011;54311;51.726;5.154;2024-01-10T05:06:17;12.77;;;11.70;;
67442;SDS011;54311;51.726;5.154;2024-01-10T05:08:42;11.82;;;10.43;;
67442;SDS011;54311;51.726;5.154;2024-01-10T05:11:07;11.65;;;10.68;;
67442;SDS011;54311;51.726;5.154;2024-01-10T05:13:33;12.10;;;11.10;;
67442;SDS011;54311;51.726;5.154;2024-01-10T05:15:58;9.73;;;8.85;;
67442;SDS011;54311;51.726;5.154;2024-01-10T05:18:24;10.10;;;9.30;;
67442;SDS011;54311;51.726;5.154;2024-01-10T05:20:49;12.13;;;10.95;;
67442;SDS011;54311;51.726;5.154;2024-01-10T05:23:15;10.63;;;9.77;;
67442;SDS011;54311;51.726;5.154;2024-01-10T05:25:40;11.20;;;10.10;;
67442;SDS011;54311;51.726;5.154;2024-01-10T05:28:05;11.27;;;10.32;;
67442;SDS011;54311;51.726;5.154;2024-01-10T05:30:31;14.02;;;10.77;;
67442;SDS011;54311;51.726;5.154;2024-01-10T05:32:57;11.07;;;10.27;;
67442;SDS011;54311;51.726;5.154;2024-01-10T05:35:23;11.15;;;10.13;;
67442;SDS011;54311;51.726;5.154;2024-01-10T05:37:50;12.20;;;10.88;;
67442;SDS011;54311;51.726;5.154;2024-01-10T05:40:16;12.77;;;11.57;;
67442;SDS011;54311;51.726;5.154;2024-01-10T05:42:41;11.48;;;10.43;;
67442;SDS011;54311;51.726;5.154;2024-01-10T05:45:06;12.10;;;10.75;;
67442;SDS011;54311;51.726;5.154;2024-01-10T05:47:32;11.80;;;10.68;;
67442;SDS011;54311;51.726;5.154;2024-01-10T05:49:57;12.32;;;11.02;;
67442;SDS011;54311;51.726;5.154;2024-01-10T05:52:23;11.93;;;10.30;;
67442;SDS011;54311;51.726;5.154;2024-01-10T05:54:48;11.30;;;10.30;;
67442;SDS011;54311;51.726;5.154;2024-01-10T05:57:16;11.85;;;10.85;;
67442;SDS011;54311;51.726;5.154;2024-01-10T05:59:42;14.48;;;11.60;;
67442;SDS011;54311;51.726;5.154;2024-01-10T06:02:07;10.52;;;9.68;;
67442;SDS011;54311;51.726;5.154;2024-01-10T06:04:32;12.15;;;11.05;;
67442;SDS011;54311;51.726;5.154;2024-01-10T06:06:58;12.55;;;10.88;;
67442;SDS011;54311;51.726;5.154;2024-01-10T06:09:24;13.77;;;10.95;;
67442;SDS011;54311;51.726;5.154;2024-01-10T06:11:49;12.48;;;11.30;;
67442;SDS011;54311;51.726;5.154;2024-01-10T06:14:14;13.85;;;11.80;;
67442;SDS011;54311;51.726;5.154;2024-01-10T06:16:40;13.05;;;11.95;;
67442;SDS011;54311;51.726;5.154;2024-01-10T06:19:06;10.57;;;9.63;;
67442;SDS011;54311;51.726;5.154;2024-01-10T06:21:31;13.80;;;10.68;;
67442;SDS011;54311;51.726;5.154;2024-01-10T06:23:56;11.68;;;10.48;;
67442;SDS011;54311;51.726;5.154;2024-01-10T06:26:22;13.60;;;11.32;;
67442;SDS011;54311;51.726;5.154;2024-01-10T06:28:47;12.88;;;11.32;;
67442;SDS011;54311;51.726;5.154;2024-01-10T06:31:12;13.05;;;11.95;;
67442;SDS011;54311;51.726;5.154;2024-01-10T06:33:38;12.82;;;11.57;;
67442;SDS011;54311;51.726;5.154;2024-01-10T06:36:03;12.00;;;10.90;;
67442;SDS011;54311;51.726;5.154;2024-01-10T06:38:29;12.13;;;10.93;;
67442;SDS011;54311;51.726;5.154;2024-01-10T06:40:54;12.68;;;11.40;;
67442;SDS011;54311;51.726;5.154;2024-01-10T06:43:19;12.50;;;11.48;;
67442;SDS011;54311;51.726;5.154;2024-01-10T06:45:45;12.60;;;11.43;;
67442;SDS011;54311;51.726;5.154;2024-01-10T06:48:11;12.45;;;11.15;;
67442;SDS011;54311;51.726;5.154;2024-01-10T06:50:36;11.63;;;10.55;;
67442;SDS011;54311;51.726;5.154;2024-01-10T06:53:02;13.18;;;11.98;;
67442;SDS011;54311;51.726;5.154;2024-01-10T06:55:27;12.80;;;11.60;;
67442;SDS011;54311;51.726;5.154;2024-01-10T06:57:54;13.18;;;11.50;;
67442;SDS011;54311;51.726;5.154;2024-01-10T07:00:20;11.07;;;9.95;;
67442;SDS011;54311;51.726;5.154;2024-01-10T07:02:46;13.27;;;12.00;;
67442;SDS011;54311;51.726;5.154;2024-01-10T07:05:11;14.13;;;12.82;;
67442;SDS011;54311;51.726;5.154;2024-01-10T07:07:37;13.15;;;11.90;;
67442;SDS011;54311;51.726;5.154;2024-01-10T07:10:02;13.27;;;12.13;;
67442;SDS011;54311;51.726;5.154;2024-01-10T07:12:34;13.68;;;12.35;;
67442;SDS011;54311;51.726;5.154;2024-01-10T07:14:59;13.38;;;12.18;;
67442;SDS011;54311;51.726;5.154;2024-01-10T07:17:25;12.95;;;11.68;;
67442;SDS011;54311;51.726;5.154;2024-01-10T07:19:50;12.60;;;11.43;;
67442;SDS011;54311;51.726;5.154;2024-01-10T07:22:16;15.20;;;13.00;;
67442;SDS011;54311;51.726;5.154;2024-01-10T07:24:43;68.70;;;44.80;;
67442;SDS011;54311;51.726;5.154;2024-01-10T07:27:08;53.55;;;36.92;;
67442;SDS011;54311;51.726;5.154;2024-01-10T07:29:34;20.15;;;17.90;;
67442;SDS011;54311;51.726;5.154;2024-01-10T07:32:00;18.90;;;16.90;;
67442;SDS011;54311;51.726;5.154;2024-01-10T07:34:25;15.15;;;13.63;;
67442;SDS011;54311;51.726;5.154;2024-01-10T07:36:50;12.75;;;11.43;;
67442;SDS011;54311;51.726;5.154;2024-01-10T07:39:16;13.77;;;12.50;;
67442;SDS011;54311;51.726;5.154;2024-01-10T07:41:45;14.48;;;12.80;;
67442;SDS011;54311;51.726;5.154;2024-01-10T07:44:11;15.07;;;13.73;;
67442;SDS011;54311;51.726;5.154;2024-01-10T07:46:37;12.48;;;11.35;;
67442;SDS011;54311;51.726;5.154;2024-01-10T07:49:03;13.43;;;12.13;;
67442;SDS011;54311;51.726;5.154;2024-01-10T07:51:29;14.40;;;12.98;;
67442;SDS011;54311;51.726;5.154;2024-01-10T07:53:55;14.40;;;12.93;;
67442;SDS011;54311;51.726;5.154;2024-01-10T07:56:21;14.38;;;12.90;;
67442;SDS011;54311;51.726;5.154;2024-01-10T07:58:47;14.55;;;13.05;;
67442;SDS011;54311;51.726;5.154;2024-01-10T08:01:13;13.55;;;12.25;;
67442;SDS011;54311;51.726;5.154;2024-01-10T08:03:39;14.98;;;13.38;;
67442;SDS011;54311;51.726;5.154;2024-01-10T08:06:04;13.68;;;12.35;;
67442;SDS011;54311;51.726;5.154;2024-01-10T08:08:31;16.10;;;12.85;;
67442;SDS011;54311;51.726;5.154;2024-01-10T08:10:58;19.40;;;15.43;;
67442;SDS011;54311;51.726;5.154;2024-01-10T08:13:23;12.75;;;11.65;;
67442;SDS011;54311;51.726;5.154;2024-01-10T08:15:49;14.93;;;13.38;;
67442;SDS011;54311;51.726;5.154;2024-01-10T08:18:14;14.98;;;13.52;;
67442;SDS011;54311;51.726;5.154;2024-01-10T08:20:39;17.65;;;15.90;;
67442;SDS011;54311;51.726;5.154;2024-01-10T08:23:05;13.63;;;12.32;;
67442;SDS011;54311;51.726;5.154;2024-01-10T08:25:30;16.08;;;13.82;;
67442;SDS011;54311;51.726;5.154;2024-01-10T08:27:56;14.27;;;12.73;;
67442;SDS011;54311;51.726;5.154;2024-01-10T08:30:23;17.33;;;13.70;;
67442;SDS011;54311;51.726;5.154;2024-01-10T08:32:48;17.63;;;14.02;;
67442;SDS011;54311;51.726;5.154;2024-01-10T08:35:14;15.00;;;13.48;;
67442;SDS011;54311;51.726;5.154;2024-01-10T08:37:40;16.85;;;15.05;;
67442;SDS011;54311;51.726;5.154;2024-01-10T08:40:08;16.63;;;14.93;;
67442;SDS011;54311;51.726;5.154;2024-01-10T08:42:36;16.10;;;14.40;;
67442;SDS011;54311;51.726;5.154;2024-01-10T08:45:03;15.43;;;13.93;;
67442;SDS011;54311;51.726;5.154;2024-01-10T08:47:28;14.43;;;12.98;;
67442;SDS011;54311;51.726;5.154;2024-01-10T08:49:57;16.13;;;14.60;;
67442;SDS011;54311;51.726;5.154;2024-01-10T08:52:22;15.55;;;13.85;;
67442;SDS011;54311;51.726;5.154;2024-01-10T08:54:48;14.73;;;13.35;;
67442;SDS011;54311;51.726;5.154;2024-01-10T08:57:13;15.85;;;13.68;;
67442;SDS011;54311;51.726;5.154;2024-01-10T08:59:41;15.32;;;13.70;;
67442;SDS011;54311;51.726;5.154;2024-01-10T09:02:07;16.95;;;15.00;;
67442;SDS011;54311;51.726;5.154;2024-01-10T09:04:32;16.17;;;14.10;;
67442;SDS011;54311;51.726;5.154;2024-01-10T09:06:58;15.95;;;14.13;;
67442;SDS011;54311;51.726;5.154;2024-01-10T09:09:23;16.85;;;15.05;;
67442;SDS011;54311;51.726;5.154;2024-01-10T09:11:48;16.13;;;14.40;;
67442;SDS011;54311;51.726;5.154;2024-01-10T09:14:14;17.38;;;15.48;;
67442;SDS011;54311;51.726;5.154;2024-01-10T09:16:39;15.85;;;13.30;;
67442;SDS011;54311;51.726;5.154;2024-01-10T09:19:05;16.25;;;14.55;;
67442;SDS011;54311;51.726;5.154;2024-01-10T09:21:30;21.25;;;15.93;;
67442;SDS011;54311;51.726;5.154;2024-01-10T09:23:56;16.02;;;14.40;;
67442;SDS011;54311;51.726;5.154;2024-01-10T09:26:21;16.65;;;14.95;;
67442;SDS011;54311;51.726;5.154;2024-01-10T09:28:47;17.75;;;14.88;;
67442;SDS011;54311;51.726;5.154;2024-01-10T09:31:13;23.38;;;15.52;;
67442;SDS011;54311;51.726;5.154;2024-01-10T09:33:38;18.88;;;15.38;;
67442;SDS011;54311;51.726;5.154;2024-01-10T09:36:04;19.80;;;16.13;;
67442;SDS011;54311;51.726;5.154;2024-01-10T09:38:30;17.88;;;15.18;;
67442;SDS011;54311;51.726;5.154;2024-01-10T09:41:00;18.50;;;15.57;;
67442;SDS011;54311;51.726;5.154;2024-01-10T09:43:28;20.13;;;14.77;;
67442;SDS011;54311;51.726;5.154;2024-01-10T09:45:55;19.00;;;15.30;;
67442;SDS011;54311;51.726;5.154;2024-01-10T09:48:22;17.85;;;14.68;;
67442;SDS011;54311;51.726;5.154;2024-01-10T09:50:48;19.15;;;15.15;;
67442;SDS011;54311;51.726;5.154;2024-01-10T09:53:18;17.25;;;15.13;;
67442;SDS011;54311;51.726;5.154;2024-01-10T09:55:48;19.67;;;16.50;;
67442;SDS011;54311;51.726;5.154;2024-01-10T09:58:14;20.85;;;16.88;;
67442;SDS011;54311;51.726;5.154;2024-01-10T10:00:39;18.08;;;15.02;;
67442;SDS011;54311;51.726;5.154;2024-01-10T10:03:06;18.60;;;16.63;;
67442;SDS011;54311;51.726;5.154;2024-01-10T10:05:32;19.25;;;16.38;;
67442;SDS011;54311;51.726;5.154;2024-01-10T10:07:59;16.98;;;14.35;;
67442;SDS011;54311;51.726;5.154;2024-01-10T10:10:25;18.98;;;16.08;;
67442;SDS011;54311;51.726;5.154;2024-01-10T10:12:52;20.45;;;16.27;;
67442;SDS011;54311;51.726;5.154;2024-01-10T10:15:18;17.80;;;15.95;;
67442;SDS011;54311;51.726;5.154;2024-01-10T10:17:46;17.88;;;15.98;;
67442;SDS011;54311;51.726;5.154;2024-01-10T10:20:34;19.60;;;16.13;;
67442;SDS011;54311;51.726;5.154;2024-01-10T10:23:05;21.13;;;16.75;;
67442;SDS011;54311;51.726;5.154;2024-01-10T10:25:32;19.98;;;16.70;;
67442;SDS011;54311;51.726;5.154;2024-01-10T10:27:59;29.58;;;15.48;;
67442;SDS011;54311;51.726;5.154;2024-01-10T10:30:28;19.05;;;16.77;;
67442;SDS011;54311;51.726;5.154;2024-01-10T10:32:57;16.90;;;15.18;;
67442;SDS011;54311;51.726;5.154;2024-01-10T10:35:22;24.88;;;16.15;;
67442;SDS011;54311;51.726;5.154;2024-01-10T10:37:48;21.98;;;16.00;;
67442;SDS011;54311;51.726;5.154;2024-01-10T10:40:15;19.92;;;15.55;;
67442;SDS011;54311;51.726;5.154;2024-01-10T10:42:43;28.55;;;16.63;;
67442;SDS011;54311;51.726;5.154;2024-01-10T10:45:12;22.48;;;16.05;;
67442;SDS011;54311;51.726;5.154;2024-01-10T10:47:39;22.02;;;16.75;;
67442;SDS011;54311;51.726;5.154;2024-01-10T10:50:08;21.10;;;17.00;;
67442;SDS011;54311;51.726;5.154;2024-01-10T10:52:38;20.27;;;16.23;;
67442;SDS011;54311;51.726;5.154;2024-01-10T10:55:09;19.80;;;15.77;;
67442;SDS011;54311;51.726;5.154;2024-01-10T10:57:34;20.92;;;16.67;;
67442;SDS011;54311;51.726;5.154;2024-01-10T11:00:00;20.48;;;16.50;;
67442;SDS011;54311;51.726;5.154;2024-01-10T11:02:26;20.10;;;16.83;;
67442;SDS011;54311;51.726;5.154;2024-01-10T11:04:53;16.77;;;15.00;;
67442;SDS011;54311;51.726;5.154;2024-01-10T11:07:19;19.02;;;15.55;;
67442;SDS011;54311;51.726;5.154;2024-01-10T11:09:45;18.73;;;15.50;;
67442;SDS011;54311;51.726;5.154;2024-01-10T11:17:44;21.90;;;16.05;;
67442;SDS011;54311;51.726;5.154;2024-01-10T11:25:29;21.45;;;15.00;;
67442;SDS011;54311;51.726;5.154;2024-01-10T11:27:55;17.33;;;15.52;;
67442;SDS011;54311;51.726;5.154;2024-01-10T11:30:34;19.90;;;16.08;;
67442;SDS011;54311;51.726;5.154;2024-01-10T11:33:24;18.80;;;15.77;;
67442;SDS011;54311;51.726;5.154;2024-01-10T11:36:05;19.63;;;16.98;;
67442;SDS011;54311;51.726;5.154;2024-01-10T11:41:15;19.42;;;16.60;;
67442;SDS011;54311;51.726;5.154;2024-01-10T11:43:44;19.38;;;16.45;;
67442;SDS011;54311;51.726;5.154;2024-01-10T11:46:10;25.77;;;17.98;;
67442;SDS011;54311;51.726;5.154;2024-01-10T11:48:37;20.35;;;16.13;;
67442;SDS011;54311;51.726;5.154;2024-01-10T11:51:05;23.77;;;16.80;;
67442;SDS011;54311;51.726;5.154;2024-01-10T11:53:41;20.10;;;17.17;;
67442;SDS011;54311;51.726;5.154;2024-01-10T11:56:14;20.10;;;16.85;;
67442;SDS011;54311;51.726;5.154;2024-01-10T11:58:54;19.25;;;16.27;;
67442;SDS011;54311;51.726;5.154;2024-01-10T12:01:20;18.35;;;16.17;;
67442;SDS011;54311;51.726;5.154;2024-01-10T12:03:47;18.83;;;15.40;;
67442;SDS011;54311;51.726;5.154;2024-01-10T12:06:13;23.30;;;18.08;;
67442;SDS011;54311;51.726;5.154;2024-01-10T12:08:39;20.25;;;17.02;;
67442;SDS011;54311;51.726;5.154;2024-01-10T12:11:05;20.05;;;16.95;;
67442;SDS011;54311;51.726;5.154;2024-01-10T12:13:30;24.02;;;17.23;;
67442;SDS011;54311;51.726;5.154;2024-01-10T12:15:57;20.88;;;17.23;;
67442;SDS011;54311;51.726;5.154;2024-01-10T12:18:22;24.08;;;17.27;;
67442;SDS011;54311;51.726;5.154;2024-01-10T12:20:48;20.60;;;15.85;;
67442;SDS011;54311;51.726;5.154;2024-01-10T12:23:13;18.27;;;15.00;;
67442;SDS011;54311;51.726;5.154;2024-01-10T12:25:39;21.08;;;16.45;;
67442;SDS011;54311;51.726;5.154;2024-01-10T12:28:04;21.40;;;16.80;;
67442;SDS011;54311;51.726;5.154;2024-01-10T12:30:30;19.90;;;16.83;;
67442;SDS011;54311;51.726;5.154;2024-01-10T12:32:55;18.95;;;16.02;;
67442;SDS011;54311;51.726;5.154;2024-01-10T12:35:24;23.50;;;18.00;;
67442;SDS011;54311;51.726;5.154;2024-01-10T12:37:53;20.60;;;17.50;;
67442;SDS011;54311;51.726;5.154;2024-01-10T12:40:20;20.80;;;16.42;;
67442;SDS011;54311;51.726;5.154;2024-01-10T12:42:45;23.95;;;20.27;;
67442;SDS011;54311;51.726;5.154;2024-01-10T12:45:23;19.85;;;17.30;;
67442;SDS011;54311;51.726;5.154;2024-01-10T12:47:48;23.35;;;18.75;;
67442;SDS011;54311;51.726;5.154;2024-01-10T12:50:14;19.88;;;17.17;;
67442;SDS011;54311;51.726;5.154;2024-01-10T12:52:42;20.13;;;16.40;;
67442;SDS011;54311;51.726;5.154;2024-01-10T12:55:09;24.02;;;17.52;;
67442;SDS011;54311;51.726;5.154;2024-01-10T12:57:34;24.23;;;18.75;;
67442;SDS011;54311;51.726;5.154;2024-01-10T13:00:00;29.60;;;17.92;;
67442;SDS011;54311;51.726;5.154;2024-01-10T13:02:25;23.65;;;18.02;;
67442;SDS011;54311;51.726;5.154;2024-01-10T13:04:50;19.88;;;17.40;;
67442;SDS011;54311;51.726;5.154;2024-01-10T13:07:16;28.23;;;19.85;;
67442;SDS011;54311;51.726;5.154;2024-01-10T13:09:42;24.85;;;20.52;;
67442;SDS011;54311;51.726;5.154;2024-01-10T13:12:07;28.73;;;20.33;;
67442;SDS011;54311;51.726;5.154;2024-01-10T13:14:33;29.58;;;19.40;;
67442;SDS011;54311;51.726;5.154;2024-01-10T13:16:59;30.88;;;20.70;;
67442;SDS011;54311;51.726;5.154;2024-01-10T13:19:24;25.63;;;19.10;;
67442;SDS011;54311;51.726;5.154;2024-01-10T13:21:49;25.92;;;19.15;;
67442;SDS011;54311;51.726;5.154;2024-01-10T13:24:15;23.20;;;18.20;;
67442;SDS011;54311;51.726;5.154;2024-01-10T13:26:40;24.60;;;20.27;;
67442;SDS011;54311;51.726;5.154;2024-01-10T13:29:05;22.55;;;18.88;;
67442;SDS011;54311;51.726;5.154;2024-01-10T13:31:31;20.58;;;15.77;;
67442;SDS011;54311;51.726;5.154;2024-01-10T13:33:56;24.33;;;20.10;;
67442;SDS011;54311;51.726;5.154;2024-01-10T13:36:21;23.15;;;19.67;;
67442;SDS011;54311;51.726;5.154;2024-01-10T13:38:47;23.67;;;18.27;;
67442;SDS011;54311;51.726;5.154;2024-01-10T13:41:12;23.45;;;17.27;;
67442;SDS011;54311;51.726;5.154;2024-01-10T13:43:37;23.33;;;18.52;;
67442;SDS011;54311;51.726;5.154;2024-01-10T13:46:05;21.45;;;18.25;;
67442;SDS011;54311;51.726;5.154;2024-01-10T13:48:30;22.17;;;18.30;;
67442;SDS011;54311;51.726;5.154;2024-01-10T13:50:55;23.73;;;18.05;;
67442;SDS011;54311;51.726;5.154;2024-01-10T13:53:21;27.63;;;18.40;;
67442;SDS011;54311;51.726;5.154;2024-01-10T13:55:46;22.50;;;17.83;;
67442;SDS011;54311;51.726;5.154;2024-01-10T13:58:12;21.00;;;17.85;;
67442;SDS011;54311;51.726;5.154;2024-01-10T14:00:38;23.67;;;18.10;;
67442;SDS011;54311;51.726;5.154;2024-01-10T14:03:04;20.42;;;16.88;;
67442;SDS011;54311;51.726;5.154;2024-01-10T14:05:29;24.42;;;18.38;;
67442;SDS011;54311;51.726;5.154;2024-01-10T14:07:55;23.08;;;17.25;;
67442;SDS011;54311;51.726;5.154;2024-01-10T14:10:21;22.00;;;18.45;;
67442;SDS011;54311;51.726;5.154;2024-01-10T14:12:47;22.33;;;18.13;;
67442;SDS011;54311;51.726;5.154;2024-01-10T14:15:12;23.58;;;17.45;;
67442;SDS011;54311;51.726;5.154;2024-01-10T14:17:38;26.23;;;18.20;;
67442;SDS011;54311;51.726;5.154;2024-01-10T14:20:04;24.05;;;18.25;;
67442;SDS011;54311;51.726;5.154;2024-01-10T14:22:33;21.30;;;18.30;;
67442;SDS011;54311;51.726;5.154;2024-01-10T14:24:59;19.60;;;17.17;;
67442;SDS011;54311;51.726;5.154;2024-01-10T14:27:25;28.10;;;19.30;;
67442;SDS011;54311;51.726;5.154;2024-01-10T14:29:50;22.88;;;18.98;;